Données météorologiques d'aviation de Metar     LHBP Budapest Liszt Ferenc International Airport
Température
11°C Température
6°C Point de rosée
72% Humidité



Vitesse
0 KM/H
0 MPH
0 M/S
0 KTS



Calme
Nord
Conditions actuelles

Claire Claire
Pression 1024.92 (hPa) - 30.27 (inHg)
Visibilité 6.2 (mile) - 10 (km)
Aéroport
Code de l'aéroport LHBP

Emplacement: Budapest Liszt Ferenc International Airport
Distance: 14 (km)

Metar:
LHBP 191500Z 00000KT CAVOK 11/06 Q1025 NOSIG

Temps: 2020-10-19 16:00 BST